Time;durP1;ratioP1;P1;durP2;ratioP2;P2;SDS_P1;SDS_P2;PMS_P1;PMS_P2;Temp;Humidity;BMP_temperature;BMP_pressure;BME280_temperature;BME280_humidity;BME280_pressure;Samples;Min_cycle;Max_cycle;Signal;HPM_P1;HPM_P2
2022/12/18 00:01:31;;;;;;;62.47;29.07;;;-3.80;99.90;;;;;;5085307;28;20020;-74
2022/12/18 00:03:59;;;;;;;64.60;31.50;;;-3.90;99.90;;;;;;5085298;28;20514;-74
2022/12/18 00:06:28;;;;;;;58.60;29.77;;;-3.90;99.90;;;;;;5063205;28;20493;-73
2022/12/18 00:08:56;;;;;;;59.23;28.00;;;-3.90;99.90;;;;;;5082553;28;20024;-74
2022/12/18 00:11:25;;;;;;;51.27;24.17;;;-3.90;99.90;;;;;;5084593;28;20039;-73
2022/12/18 00:13:53;;;;;;;43.90;22.07;;;-4.00;99.90;;;;;;5068007;28;20051;-74
2022/12/18 00:16:22;;;;;;;59.63;27.30;;;-4.00;99.90;;;;;;5081826;28;20020;-73
2022/12/18 00:18:50;;;;;;;49.03;24.87;;;-4.10;99.90;;;;;;5081807;28;20517;-74
2022/12/18 00:21:17;;;;;;;54.23;25.77;;;-4.10;99.90;;;;;;5071831;28;20052;-74
2022/12/18 00:23:46;;;;;;;55.13;27.33;;;-4.10;99.90;;;;;;5056083;28;20051;-73
2022/12/18 00:26:15;;;;;;;55.27;26.33;;;-4.20;99.90;;;;;;5070276;28;20028;-73
2022/12/18 00:28:42;;;;;;;58.87;30.17;;;-4.20;99.90;;;;;;5083243;28;20801;-73
2022/12/18 00:31:14;;;;;;;53.67;26.80;;;-4.20;99.90;;;;;;5071465;28;20102;-73
2022/12/18 00:33:41;;;;;;;55.40;26.00;;;-4.20;99.90;;;;;;5071655;28;20039;-74
2022/12/18 00:36:13;;;;;;;70.60;32.57;;;-4.30;99.90;;;;;;5070605;28;20024;-74
2022/12/18 00:38:40;;;;;;;55.83;27.77;;;-4.30;99.90;;;;;;5066911;28;20382;-73
2022/12/18 00:41:09;;;;;;;54.53;24.97;;;-4.40;99.90;;;;;;5089116;28;20028;-74
2022/12/18 00:43:36;;;;;;;65.30;29.13;;;-4.40;99.90;;;;;;5071275;28;20099;-74
2022/12/18 00:46:03;;;;;;;58.67;27.27;;;-4.40;99.90;;;;;;5087110;28;20039;-74
2022/12/18 00:48:30;;;;;;;51.47;23.60;;;-4.40;99.90;;;;;;5048424;28;20054;-74
2022/12/18 00:50:56;;;;;;;58.73;26.67;;;-4.40;99.90;;;;;;5071662;28;20034;-74
2022/12/18 00:53:22;;;;;;;57.20;26.83;;;-4.40;99.90;;;;;;5105020;28;20043;-74
2022/12/18 00:55:49;;;;;;;56.03;25.17;;;-4.50;99.90;;;;;;5062385;28;20677;-74
2022/12/18 00:58:16;;;;;;;52.63;24.07;;;-4.50;99.90;;;;;;5064746;28;20028;-74
2022/12/18 01:00:43;;;;;;;45.37;21.80;;;-4.50;99.90;;;;;;5071344;28;20035;-74
2022/12/18 01:03:13;;;;;;;47.77;22.60;;;-4.50;99.90;;;;;;5086259;28;20036;-74
2022/12/18 01:05:41;;;;;;;44.07;21.10;;;-4.50;99.90;;;;;;5087367;28;20032;-74
2022/12/18 01:08:08;;;;;;;50.00;23.33;;;-4.60;99.90;;;;;;5064853;28;20032;-74
2022/12/18 01:10:34;;;;;;;53.60;24.00;;;-4.60;99.90;;;;;;5087921;28;20494;-74
2022/12/18 01:13:01;;;;;;;56.43;23.13;;;-4.60;99.90;;;;;;5087640;28;20024;-74
2022/12/18 01:15:27;;;;;;;59.60;25.40;;;-4.60;99.90;;;;;;5070114;28;20035;-74
2022/12/18 01:17:53;;;;;;;46.47;21.77;;;-4.60;99.90;;;;;;5064365;28;20047;-72
2022/12/18 01:20:20;;;;;;;47.70;21.20;;;-4.60;99.90;;;;;;5089281;28;20040;-73
2022/12/18 01:22:46;;;;;;;51.90;24.17;;;-4.70;99.90;;;;;;5070332;28;20278;-73
2022/12/18 01:25:13;;;;;;;51.87;23.60;;;-4.70;99.90;;;;;;5069686;28;20039;-73
2022/12/18 01:27:39;;;;;;;53.83;26.23;;;-4.70;99.90;;;;;;5081002;28;20417;-73
2022/12/18 01:30:06;;;;;;;55.10;26.43;;;-4.70;99.90;;;;;;5070573;28;20043;-73
2022/12/18 01:32:33;;;;;;;57.03;26.63;;;-4.70;99.90;;;;;;5070119;28;20036;-73
2022/12/18 01:34:59;;;;;;;57.77;25.47;;;-4.80;99.90;;;;;;5087141;28;20028;-73
2022/12/18 01:37:27;;;;;;;54.03;26.63;;;-4.80;99.90;;;;;;5064330;28;21909;-72
2022/12/18 01:39:54;;;;;;;52.10;24.80;;;-4.80;99.90;;;;;;5087636;28;20047;-73
2022/12/18 01:42:21;;;;;;;52.63;23.43;;;-4.80;99.90;;;;;;5086752;28;20039;-72
2022/12/18 01:45:20;;;;;;;47.00;22.40;;;-4.80;99.90;;;;;;5086790;28;20028;-73
2022/12/18 01:47:50;;;;;;;46.83;21.67;;;-4.90;99.90;;;;;;5097841;28;20039;-73
2022/12/18 01:50:38;;;;;;;43.73;20.77;;;-4.80;99.90;;;;;;5070288;28;20035;-73
2022/12/18 01:53:16;;;;;;;48.27;21.47;;;-4.90;99.90;;;;;;5070200;28;20054;-73
2022/12/18 01:55:55;;;;;;;46.70;21.27;;;-4.90;99.90;;;;;;5097278;28;20032;-73
2022/12/18 01:58:44;;;;;;;40.20;19.23;;;-4.90;99.90;;;;;;5064052;28;20272;-73
2022/12/18 02:01:11;;;;;;;48.90;21.00;;;-4.90;99.90;;;;;;5086493;28;20047;-73
2022/12/18 02:03:37;;;;;;;49.33;23.57;;;-4.90;99.90;;;;;;5103431;28;20032;-73
2022/12/18 02:06:22;;;;;;;48.23;22.93;;;-5.00;99.90;;;;;;5069214;28;20455;-73
2022/12/18 02:08:53;;;;;;;39.17;19.43;;;-5.00;99.90;;;;;;5083136;28;20035;-73
2022/12/18 02:11:22;;;;;;;48.30;23.57;;;-5.00;99.90;;;;;;5069395;28;20027;-72
2022/12/18 02:14:11;;;;;;;41.67;19.20;;;-5.00;99.90;;;;;;5086797;28;20386;-73
2022/12/18 02:16:57;;;;;;;40.13;19.13;;;-5.00;99.90;;;;;;5079923;28;20040;-73
2022/12/18 02:19:41;;;;;;;49.57;22.23;;;-5.00;99.90;;;;;;5064338;28;20059;-73
2022/12/18 02:22:39;;;;;;;41.27;19.13;;;-5.00;99.90;;;;;;5089081;28;20048;-73
2022/12/18 02:25:11;;;;;;;39.77;17.87;;;-5.10;99.90;;;;;;5060335;28;20043;-73
2022/12/18 02:27:40;;;;;;;43.17;19.38;;;-5.10;99.90;;;;;;5063774;28;20390;-73
2022/12/18 02:30:09;;;;;;;41.97;20.07;;;-5.10;99.90;;;;;;5084558;28;20048;-73
2022/12/18 02:32:41;;;;;;;39.30;19.17;;;-5.10;99.90;;;;;;5068070;28;20478;-73
2022/12/18 02:35:16;;;;;;;37.33;18.87;;;-5.10;99.90;;;;;;5086109;28;20505;-73
2022/12/18 02:37:46;;;;;;;42.87;19.63;;;-5.10;99.90;;;;;;5079164;28;20047;-73
2022/12/18 02:40:14;;;;;;;48.43;21.43;;;-5.10;99.90;;;;;;5084425;28;20047;-73
2022/12/18 02:42:41;;;;;;;44.07;21.23;;;-5.10;99.90;;;;;;5086283;28;20044;-74
2022/12/18 02:45:09;;;;;;;51.33;22.97;;;-5.10;99.90;;;;;;5068098;28;20024;-73
2022/12/18 02:47:40;;;;;;;48.00;22.00;;;-5.10;99.90;;;;;;5062864;28;20032;-74
2022/12/18 02:50:22;;;;;;;54.40;24.50;;;-5.10;99.90;;;;;;5068831;28;20118;-74
2022/12/18 02:53:25;;;;;;;45.23;21.80;;;-5.20;99.90;;;;;;5069996;28;20042;-74
2022/12/18 02:55:55;;;;;;;53.37;23.43;;;-5.20;99.90;;;;;;5068477;28;20032;-74
2022/12/18 02:58:42;;;;;;;44.47;22.23;;;-5.20;99.90;;;;;;5080530;28;20032;-73
2022/12/18 03:01:23;;;;;;;48.93;21.90;;;-5.20;99.90;;;;;;5085595;28;20032;-73
2022/12/18 03:04:01;;;;;;;50.90;23.20;;;-5.20;99.90;;;;;;5052491;28;20063;-74
2022/12/18 03:06:39;;;;;;;49.03;22.10;;;-5.20;99.90;;;;;;5082429;28;20047;-73
2022/12/18 03:09:17;;;;;;;46.57;21.83;;;-5.20;99.90;;;;;;5083706;28;20043;-74
2022/12/18 03:14:37;;;;;;;36.23;18.47;;;-5.30;99.90;;;;;;5068563;28;20471;-74
2022/12/18 03:17:12;;;;;;;38.50;20.13;;;-5.30;99.90;;;;;;5078995;28;20039;-74
2022/12/18 03:19:40;;;;;;;38.60;20.30;;;-5.30;99.90;;;;;;5085304;28;20032;-74
2022/12/18 03:22:08;;;;;;;37.47;19.50;;;-5.30;99.90;;;;;;5068464;28;20048;-73
2022/12/18 03:24:46;;;;;;;41.43;19.03;;;-5.30;99.90;;;;;;5067591;28;20036;-74
2022/12/18 03:27:17;;;;;;;41.60;21.27;;;-5.30;99.90;;;;;;5112828;28;20040;-74
2022/12/18 03:29:49;;;;;;;42.73;19.20;;;-5.30;99.90;;;;;;5068814;28;20075;-74
2022/12/18 03:32:32;;;;;;;43.57;21.27;;;-5.40;99.90;;;;;;5085144;28;20051;-74
2022/12/18 03:35:04;;;;;;;40.70;19.50;;;-5.30;99.90;;;;;;5068475;28;20039;-74
2022/12/18 03:37:34;;;;;;;33.57;16.87;;;-5.30;99.90;;;;;;5079336;28;20059;-74
2022/12/18 03:40:00;;;;;;;37.80;18.53;;;-5.30;99.90;;;;;;5084915;28;20032;-74
2022/12/18 03:42:49;;;;;;;34.10;17.50;;;-5.40;99.90;;;;;;5068654;28;20039;-74
2022/12/18 03:45:17;;;;;;;40.77;19.17;;;-5.40;99.90;;;;;;5052026;28;20051;-74
2022/12/18 03:47:50;;;;;;;33.33;15.60;;;-5.40;99.90;;;;;;5079306;28;20070;-74
2022/12/18 03:50:18;;;;;;;;;;;-5.40;99.90;;;;;;5068567;28;20040;-74
2022/12/18 03:53:09;;;;;;;24.87;12.83;;;-5.40;99.90;;;;;;5083665;28;20285;-75
2022/12/18 03:55:37;;;;;;;27.77;11.80;;;-5.40;99.90;;;;;;5071569;28;20347;-75
2022/12/18 03:58:08;;;;;;;34.17;16.23;;;-5.40;99.90;;;;;;5083553;28;20051;-74
2022/12/18 04:00:56;;;;;;;31.67;15.83;;;-5.40;99.90;;;;;;5072246;28;20035;-74
2022/12/18 04:03:23;;;;;;;31.90;15.57;;;-5.40;99.90;;;;;;5071805;28;20386;-74
2022/12/18 04:05:52;;;;;;;25.67;13.77;;;-5.40;99.90;;;;;;5071240;28;20393;-74
2022/12/18 04:08:23;;;;;;;23.83;12.10;;;-5.40;99.90;;;;;;5064569;28;20059;-74
2022/12/18 04:11:00;;;;;;;30.07;14.63;;;-5.40;99.90;;;;;;5073348;28;20040;-74
2022/12/18 04:13:35;;;;;;;28.20;14.90;;;-5.40;99.90;;;;;;5061155;28;20040;-74
2022/12/18 04:16:05;;;;;;;25.97;14.20;;;-5.40;99.90;;;;;;5071121;28;20378;-74
2022/12/18 04:18:32;;;;;;;31.30;15.03;;;-5.30;99.90;;;;;;5065836;28;20030;-74
2022/12/18 04:21:01;;;;;;;26.43;12.60;;;-5.30;99.90;;;;;;5088626;28;20059;-74
2022/12/18 04:23:28;;;;;;;35.07;17.63;;;-5.40;99.90;;;;;;5088922;28;20051;-74
2022/12/18 04:25:57;;;;;;;29.43;14.60;;;-5.30;99.90;;;;;;5071020;28;20359;-74
2022/12/18 04:28:38;;;;;;;29.97;15.93;;;-5.30;99.90;;;;;;5067353;28;20048;-74
2022/12/18 04:31:04;;;;;;;28.60;14.63;;;-5.30;99.90;;;;;;5088211;28;20036;-74
2022/12/18 04:33:31;;;;;;;32.43;15.80;;;-5.30;99.90;;;;;;5071498;28;20032;-75
2022/12/18 04:35:58;;;;;;;25.67;13.53;;;-5.30;99.90;;;;;;5088133;28;20385;-74
2022/12/18 04:38:25;;;;;;;25.43;13.57;;;-5.30;99.90;;;;;;5066172;28;20481;-74
2022/12/18 04:40:59;;;;;;;23.80;12.87;;;-5.30;99.90;;;;;;5105114;28;20047;-74
2022/12/18 04:43:27;;;;;;;33.10;15.07;;;-5.30;99.90;;;;;;5088725;28;20039;-74
2022/12/18 04:45:53;;;;;;;27.83;14.47;;;-5.30;99.90;;;;;;5072164;28;20078;-75
2022/12/18 04:48:20;;;;;;;28.77;14.30;;;-5.20;99.90;;;;;;5082367;28;20031;-74
2022/12/18 04:50:47;;;;;;;29.17;14.33;;;-5.30;99.90;;;;;;5088656;28;20043;-74
2022/12/18 04:53:13;;;;;;;21.57;11.47;;;-5.30;99.90;;;;;;5088595;28;20048;-74
2022/12/18 04:55:40;;;;;;;27.47;14.87;;;-5.20;99.90;;;;;;5088570;28;20044;-74
2022/12/18 04:58:06;;;;;;;27.67;14.20;;;-5.20;99.90;;;;;;5070784;28;20032;-74
2022/12/18 05:00:32;;;;;;;26.57;13.93;;;-5.20;99.90;;;;;;5072470;28;20486;-74
2022/12/18 05:03:02;;;;;;;26.30;13.97;;;-5.20;99.90;;;;;;5089825;28;20036;-74
2022/12/18 05:05:28;;;;;;;24.60;13.23;;;-5.20;99.90;;;;;;5070535;28;20398;-74
2022/12/18 05:07:54;;;;;;;23.23;12.73;;;-5.20;99.90;;;;;;5064779;28;20463;-74
2022/12/18 05:10:21;;;;;;;19.90;11.03;;;-5.20;99.90;;;;;;5087012;28;20470;-74
2022/12/18 05:12:59;;;;;;;21.60;11.90;;;-5.20;99.90;;;;;;5089347;28;20055;-74
2022/12/18 05:15:30;;;;;;;22.37;10.93;;;-5.20;99.90;;;;;;5053852;28;20024;-74
2022/12/18 05:17:57;;;;;;;21.10;10.10;;;-5.20;99.90;;;;;;5064891;28;20071;-74
2022/12/18 05:20:25;;;;;;;21.17;11.10;;;-5.30;99.90;;;;;;5087829;28;20106;-74
2022/12/18 05:22:51;;;;;;;21.27;12.40;;;-5.30;99.90;;;;;;5087338;28;20024;-74
2022/12/18 05:25:19;;;;;;;21.93;10.73;;;-5.30;99.90;;;;;;5069999;28;20051;-74
2022/12/18 05:27:45;;;;;;;20.53;9.67;;;-5.30;99.90;;;;;;5081421;28;20027;-74
2022/12/18 05:30:13;;;;;;;21.60;10.20;;;-5.20;99.90;;;;;;5087638;28;20518;-75
2022/12/18 05:32:39;;;;;;;19.80;10.53;;;-5.20;99.90;;;;;;5088406;28;20028;-74
2022/12/18 05:35:07;;;;;;;16.23;9.13;;;-5.30;99.90;;;;;;5088345;28;20032;-74
2022/12/18 05:37:34;;;;;;;20.20;10.10;;;-5.30;99.90;;;;;;5079263;28;20044;-74
2022/12/18 05:40:02;;;;;;;20.20;11.27;;;-5.30;99.90;;;;;;5088852;28;20043;-74
2022/12/18 05:42:29;;;;;;;20.67;10.57;;;-5.30;99.90;;;;;;5086488;28;20040;-74
2022/12/18 05:44:55;;;;;;;17.20;9.83;;;-5.30;99.90;;;;;;5086893;28;20482;-74
2022/12/18 05:47:21;;;;;;;23.80;11.70;;;-5.30;99.90;;;;;;5082480;28;20122;-74
2022/12/18 05:49:48;;;;;;;19.97;10.60;;;-5.30;99.90;;;;;;5087094;28;20043;-74
2022/12/18 05:52:14;;;;;;;19.63;10.43;;;-5.30;99.90;;;;;;5086671;28;20039;-74
2022/12/18 05:54:41;;;;;;;19.03;10.00;;;-5.30;99.90;;;;;;5103041;28;20028;-74
2022/12/18 05:57:07;;;;;;;22.47;11.23;;;-5.30;99.90;;;;;;5063689;28;20032;-74
2022/12/18 05:59:33;;;;;;;18.33;10.00;;;-5.30;99.90;;;;;;5088166;28;20122;-74
2022/12/18 06:02:00;;;;;;;19.70;10.57;;;-5.30;99.90;;;;;;5086304;28;20390;-74
2022/12/18 06:04:32;;;;;;;19.77;10.37;;;-5.30;99.90;;;;;;5069407;28;20467;-74
2022/12/18 06:06:59;;;;;;;20.00;11.20;;;-5.30;99.90;;;;;;5080333;28;20644;-74
2022/12/18 06:09:25;;;;;;;12.77;7.60;;;-5.30;99.90;;;;;;5086805;28;20028;-74
2022/12/18 06:11:52;;;;;;;18.20;10.53;;;-5.30;99.90;;;;;;5069359;28;20039;-74
2022/12/18 06:14:18;;;;;;;21.97;12.37;;;-5.30;99.90;;;;;;5069475;28;20042;-74
2022/12/18 06:16:44;;;;;;;23.47;12.53;;;-5.30;99.90;;;;;;5063923;28;20040;-74
2022/12/18 06:19:16;;;;;;;20.80;10.57;;;-5.20;99.90;;;;;;5085382;28;20493;-74
2022/12/18 06:21:42;;;;;;;18.87;10.03;;;-5.20;99.90;;;;;;5102692;28;20047;-74
2022/12/18 06:24:08;;;;;;;20.80;10.93;;;-5.20;99.90;;;;;;5086556;28;20035;-74
2022/12/18 06:26:38;;;;;;;20.50;11.47;;;-5.20;99.90;;;;;;5082682;28;20044;-73
2022/12/18 06:29:05;;;;;;;23.20;12.33;;;-5.20;99.90;;;;;;5085507;28;20023;-74
2022/12/18 06:31:32;;;;;;;21.10;11.87;;;-5.20;99.90;;;;;;5069022;28;20047;-74
2022/12/18 06:33:58;;;;;;;23.83;14.03;;;-5.20;99.90;;;;;;5069414;28;20035;-74
2022/12/18 06:36:24;;;;;;;22.30;13.00;;;-5.20;99.90;;;;;;5066546;28;20040;-73
2022/12/18 06:38:51;;;;;;;23.43;13.63;;;-5.10;99.90;;;;;;5082586;28;20035;-74
2022/12/18 06:41:20;;;;;;;25.83;13.27;;;-5.10;99.90;;;;;;5069335;28;20031;-74
2022/12/18 06:43:46;;;;;;;22.83;13.10;;;-5.10;99.90;;;;;;5067311;28;20032;-74
2022/12/18 06:46:13;;;;;;;24.33;14.40;;;-5.10;99.90;;;;;;5083429;28;20044;-73
2022/12/18 06:48:40;;;;;;;23.90;12.43;;;-5.10;99.90;;;;;;5080558;28;20024;-74
2022/12/18 06:51:06;;;;;;;29.17;15.47;;;-5.10;99.90;;;;;;5085699;28;20043;-74
2022/12/18 06:53:33;;;;;;;24.87;14.27;;;-5.00;99.90;;;;;;5086070;28;20043;-74
2022/12/18 06:56:03;;;;;;;27.83;15.57;;;-5.00;99.90;;;;;;5068525;28;20059;-74
2022/12/18 06:58:30;;;;;;;26.57;14.33;;;-5.00;99.90;;;;;;5079772;28;20032;-74
2022/12/18 07:01:05;;;;;;;23.23;12.87;;;-5.00;99.90;;;;;;5087225;28;20032;-74
2022/12/18 07:03:31;;;;;;;27.40;15.03;;;-5.00;99.90;;;;;;5085513;28;20028;-74
2022/12/18 07:05:58;;;;;;;24.40;14.27;;;-5.00;99.90;;;;;;5068362;28;20040;-74
2022/12/18 07:08:25;;;;;;;26.27;13.40;;;-4.90;99.90;;;;;;5095608;28;20127;-75
2022/12/18 07:10:52;;;;;;;24.93;13.70;;;-4.90;99.90;;;;;;5068910;28;20028;-74
2022/12/18 07:13:19;;;;;;;24.13;14.03;;;-4.90;99.90;;;;;;5053467;28;20040;-74
2022/12/18 07:15:45;;;;;;;25.07;13.87;;;-4.90;99.90;;;;;;5068297;28;20035;-74
2022/12/18 07:18:11;;;;;;;22.93;12.90;;;-4.90;99.90;;;;;;5062564;28;20106;-75
2022/12/18 07:20:38;;;;;;;26.80;14.20;;;-4.90;99.90;;;;;;5068918;28;20051;-74
2022/12/18 07:23:05;;;;;;;25.70;14.30;;;-4.90;99.90;;;;;;5087346;28;21219;-74
2022/12/18 07:25:35;;;;;;;28.40;16.10;;;-4.80;99.90;;;;;;5068156;28;20032;-74
2022/12/18 07:28:02;;;;;;;26.57;15.07;;;-4.80;99.90;;;;;;5064886;28;20039;-73
2022/12/18 07:30:28;;;;;;;28.50;15.53;;;-4.70;99.90;;;;;;5093997;28;20028;-74
2022/12/18 07:32:54;;;;;;;30.10;14.00;;;-4.70;99.90;;;;;;5096729;28;20387;-74
2022/12/18 07:35:21;;;;;;;24.53;13.47;;;-4.60;99.90;;;;;;5095136;28;20028;-74
2022/12/18 07:37:47;;;;;;;21.17;12.30;;;-4.60;99.90;;;;;;5091817;28;20246;-73
2022/12/18 07:40:13;;;;;;;26.37;14.40;;;-4.60;99.90;;;;;;5098169;28;20102;-74
2022/12/18 07:42:40;;;;;;;25.27;13.57;;;-4.60;99.90;;;;;;5077020;28;20027;-74
2022/12/18 07:45:06;;;;;;;25.80;14.77;;;-4.50;99.90;;;;;;5092304;28;20655;-74
2022/12/18 07:47:36;;;;;;;24.63;12.97;;;-4.50;99.90;;;;;;5085350;28;20032;-73
2022/12/18 07:50:03;;;;;;;21.63;12.53;;;-4.50;99.90;;;;;;5092394;28;20413;-74
2022/12/18 07:52:30;;;;;;;25.97;14.03;;;-4.50;99.90;;;;;;5092019;28;20032;-74
2022/12/18 07:54:56;;;;;;;25.27;14.10;;;-4.50;99.90;;;;;;5092012;28;20513;-74
2022/12/18 07:57:22;;;;;;;21.47;13.63;;;-4.40;99.90;;;;;;5086815;28;20028;-74
2022/12/18 07:59:49;;;;;;;25.47;14.93;;;-4.40;99.90;;;;;;5075103;28;20463;-73
2022/12/18 08:02:15;;;;;;;23.03;13.77;;;-4.40;99.90;;;;;;5075264;28;20024;-74
2022/12/18 08:04:42;;;;;;;24.73;14.03;;;-4.30;99.90;;;;;;5108377;28;20036;-74
2022/12/18 08:07:08;;;;;;;24.03;14.30;;;-4.30;99.90;;;;;;5051350;28;20086;-74
2022/12/18 08:09:35;;;;;;;29.70;15.97;;;-4.20;99.90;;;;;;5075189;28;20029;-74
2022/12/18 08:12:01;;;;;;;27.30;15.47;;;-4.20;99.90;;;;;;5093418;28;20036;-74
2022/12/18 08:14:27;;;;;;;23.47;13.70;;;-4.10;99.90;;;;;;5074527;28;20100;-73
2022/12/18 08:16:54;;;;;;;29.77;17.30;;;-4.10;99.90;;;;;;5068341;28;20044;-73
2022/12/18 08:19:20;;;;;;;26.63;15.90;;;-4.10;99.90;;;;;;5091784;28;20506;-73
2022/12/18 08:21:46;;;;;;;27.07;15.60;;;-4.00;99.90;;;;;;5092016;28;20611;-74
2022/12/18 08:24:13;;;;;;;23.90;14.47;;;-3.90;99.90;;;;;;5090546;28;20028;-73
2022/12/18 08:26:39;;;;;;;24.97;13.50;;;-3.90;99.90;;;;;;5070316;28;20059;-73
2022/12/18 08:29:06;;;;;;;26.10;14.10;;;-3.80;99.90;;;;;;5090159;28;20028;-73
2022/12/18 08:31:32;;;;;;;24.70;13.77;;;-3.80;99.90;;;;;;5074906;28;20048;-73
2022/12/18 08:33:59;;;;;;;25.90;15.07;;;-3.80;99.90;;;;;;5091625;28;20016;-73
2022/12/18 08:36:26;;;;;;;26.17;14.57;;;-3.70;99.90;;;;;;5088554;28;20036;-73
2022/12/18 08:38:52;;;;;;;26.60;14.43;;;-3.70;99.90;;;;;;5086908;28;20069;-73
2022/12/18 08:41:19;;;;;;;27.50;15.93;;;-3.60;99.90;;;;;;5071659;28;20035;-73
2022/12/18 08:46:39;;;;;;;25.37;13.87;;;-3.50;99.90;;;;;;5085401;28;20498;-73
2022/12/18 08:49:07;;;;;;;25.40;14.10;;;-3.50;99.90;;;;;;5069730;28;20027;-73
2022/12/18 08:51:34;;;;;;;25.30;13.77;;;-3.40;99.90;;;;;;5088269;28;20564;-73
2022/12/18 08:54:00;;;;;;;22.87;12.37;;;-3.40;99.90;;;;;;5088776;28;20328;-73
2022/12/18 08:56:26;;;;;;;22.03;11.83;;;-3.40;99.90;;;;;;5084657;28;20519;-73
2022/12/18 08:58:54;;;;;;;26.37;13.77;;;-3.40;99.90;;;;;;5067824;28;20474;-73
2022/12/18 09:01:21;;;;;;;22.97;12.93;;;-3.40;99.90;;;;;;5088148;28;20051;-73
2022/12/18 09:03:48;;;;;;;25.17;14.30;;;-3.30;99.90;;;;;;5087942;28;20398;-74
2022/12/18 09:06:19;;;;;;;29.13;14.00;;;-3.30;99.90;;;;;;5086536;28;20032;-74
2022/12/18 09:08:46;;;;;;;20.73;12.00;;;-3.30;99.90;;;;;;5083108;28;20445;-73
2022/12/18 09:11:24;;;;;;;23.57;13.13;;;-3.20;99.90;;;;;;5070969;28;20039;-73
2022/12/18 09:13:52;;;;;;;24.03;13.77;;;-3.20;99.90;;;;;;5087843;28;20028;-73
2022/12/18 09:16:19;;;;;;;20.97;12.63;;;-3.10;99.90;;;;;;5069337;28;20486;-73
2022/12/18 09:18:46;;;;;;;20.20;12.47;;;-3.00;99.90;;;;;;5066106;28;20521;-72
2022/12/18 09:21:19;;;;;;;22.90;12.53;;;-3.00;99.90;;;;;;5070546;28;20071;-72
2022/12/18 09:23:53;;;;;;;21.38;12.93;;;-2.90;99.90;;;;;;5087740;28;20024;-72
2022/12/18 09:26:20;;;;;;;25.23;12.40;;;-2.80;99.90;;;;;;5087071;28;20494;-72
2022/12/18 09:28:47;;;;;;;19.73;10.90;;;-2.70;99.90;;;;;;5082613;28;20455;-72
2022/12/18 09:31:18;;;;;;;18.57;10.10;;;-2.60;99.90;;;;;;5077847;28;20027;-72
2022/12/18 09:33:45;;;;;;;19.40;11.20;;;-2.50;99.90;;;;;;5087737;28;20495;-73
2022/12/18 09:36:14;;;;;;;31.83;15.37;;;-2.40;99.90;;;;;;5086680;28;20028;-73
2022/12/18 09:38:41;;;;;;;17.57;10.73;;;-2.30;99.90;;;;;;5063925;28;20020;-73
2022/12/18 09:41:30;;;;;;;18.30;10.67;;;-2.20;99.90;;;;;;5088323;28;20015;-73
2022/12/18 09:44:12;;;;;;;16.90;10.27;;;-2.10;99.90;;;;;;5084900;28;20044;-72
2022/12/18 09:46:43;;;;;;;15.80;9.33;;;-2.00;99.90;;;;;;5082046;28;21444;-76
2022/12/18 09:49:14;;;;;;;20.03;11.93;;;-1.90;99.90;;;;;;5085051;28;20089;-73
2022/12/18 09:51:51;;;;;;;17.13;10.43;;;-1.80;99.90;;;;;;5084778;28;20024;-73
2022/12/18 09:54:29;;;;;;;21.27;11.20;;;-1.80;99.90;;;;;;5066397;28;20039;-73
2022/12/18 09:56:55;;;;;;;18.13;10.37;;;-1.70;99.90;;;;;;5079421;28;20047;-73
2022/12/18 09:59:41;;;;;;;19.67;10.47;;;-1.70;99.90;;;;;;5086463;28;20055;-73
2022/12/18 10:02:18;;;;;;;18.10;10.73;;;-1.60;99.90;;;;;;5085997;28;20024;-73
2022/12/18 10:05:05;;;;;;;15.90;9.73;;;-1.60;99.90;;;;;;5085626;28;20024;-73
2022/12/18 10:07:44;;;;;;;16.07;9.40;;;-1.50;99.90;;;;;;5062410;28;20048;-72
2022/12/18 10:10:28;;;;;;;18.10;10.03;;;-1.40;99.90;;;;;;5069799;28;20035;-71
2022/12/18 10:13:25;;;;;;;18.60;10.60;;;-1.40;99.90;;;;;;5068333;28;20114;-71
2022/12/18 10:15:51;;;;;;;20.20;11.00;;;-1.40;99.90;;;;;;5068957;28;20054;-72
2022/12/18 10:18:37;;;;;;;16.40;9.70;;;-1.30;99.90;;;;;;5079337;28;20386;-72
2022/12/18 10:21:24;;;;;;;14.07;9.43;;;-1.30;99.90;;;;;;5086890;28;20387;-72
2022/12/18 10:24:10;;;;;;;16.63;9.80;;;-1.20;99.90;;;;;;5086565;28;20032;-72
2022/12/18 10:26:37;;;;;;;17.03;10.03;;;-1.10;99.90;;;;;;5064593;28;20035;-72
2022/12/18 10:29:13;;;;;;;20.50;10.63;;;-1.00;99.90;;;;;;5066040;28;20054;-72
2022/12/18 10:31:40;;;;;;;18.80;11.03;;;-1.00;99.90;;;;;;5085847;28;20035;-72
2022/12/18 10:34:25;;;;;;;16.80;9.93;;;-1.00;99.90;;;;;;5068477;28;20039;-72
2022/12/18 10:36:51;;;;;;;17.80;10.57;;;-0.90;99.90;;;;;;5079190;28;20036;-72
2022/12/18 10:39:23;;;;;;;15.60;10.53;;;-0.80;99.90;;;;;;5073163;28;20032;-72
2022/12/18 10:41:49;;;;;;;17.63;10.30;;;-0.80;99.90;;;;;;5068571;28;20375;-72
2022/12/18 10:44:25;;;;;;;17.50;9.93;;;-0.70;99.90;;;;;;5084705;28;20024;-72
2022/12/18 10:47:04;;;;;;;14.50;9.53;;;-0.70;99.90;;;;;;5079412;28;20529;-72
2022/12/18 10:49:33;;;;;;;15.27;9.10;;;-0.60;99.90;;;;;;5086360;28;20032;-72
2022/12/18 10:52:20;;;;;;;14.40;9.23;;;-0.60;99.90;;;;;;5087039;28;20410;-73
2022/12/18 10:54:59;;;;;;;17.10;10.20;;;-0.50;99.90;;;;;;5048886;28;20059;-72
2022/12/18 10:57:37;;;;;;;17.50;10.10;;;-0.50;99.90;;;;;;5079007;28;20039;-73
2022/12/18 11:00:24;;;;;;;16.40;9.83;;;-0.50;99.90;;;;;;5084657;28;20046;-72
2022/12/18 11:02:51;;;;;;;18.80;10.53;;;-0.40;99.90;;;;;;5067337;28;20055;-73
2022/12/18 11:05:26;;;;;;;17.13;10.53;;;-0.40;99.90;;;;;;5102279;28;20051;-72
2022/12/18 11:07:54;;;;;;;16.33;8.63;;;-0.40;99.90;;;;;;5078443;28;20027;-72
2022/12/18 11:10:25;;;;;;;16.43;10.83;;;-0.30;99.90;;;;;;5084356;28;20032;-72
2022/12/18 11:12:52;;;;;;;17.37;10.27;;;-0.30;99.90;;;;;;5084268;28;20043;-73
2022/12/18 11:15:30;;;;;;;17.20;9.77;;;-0.30;99.90;;;;;;5084316;28;20023;-72
2022/12/18 11:17:56;;;;;;;18.33;10.70;;;-0.20;99.90;;;;;;5093025;28;20054;-72
2022/12/18 11:20:35;;;;;;;16.57;10.57;;;-0.20;99.90;;;;;;5082299;28;20047;-71
2022/12/18 11:23:05;;;;;;;13.77;9.07;;;-0.10;99.90;;;;;;5064772;28;20020;-71
2022/12/18 11:25:33;;;;;;;15.50;9.97;;;-0.10;99.90;;;;;;5052147;28;20028;-72
2022/12/18 11:28:05;;;;;;;14.77;9.60;;;-0.10;99.90;;;;;;5050432;28;20031;-72
2022/12/18 11:30:34;;;;;;;17.88;10.32;;;-0.10;99.90;;;;;;5084441;28;20035;-73
2022/12/18 11:33:03;;;;;;;17.03;10.50;;;-0.10;99.90;;;;;;5066716;28;20036;-72
2022/12/18 11:35:39;;;;;;;17.33;10.30;;;0.00;99.90;;;;;;5066915;28;20367;-72
2022/12/18 11:38:11;;;;;;;15.43;10.10;;;0.00;99.90;;;;;;5077499;28;20039;-73
2022/12/18 11:40:41;;;;;;;15.02;9.63;;;0.10;99.90;;;;;;5084449;28;20028;-73
2022/12/18 11:43:38;;;;;;;17.93;10.83;;;0.10;99.90;;;;;;5066333;28;20561;-73
2022/12/18 11:46:29;;;;;;;13.93;9.97;;;0.10;99.90;;;;;;5052964;28;20028;-73
2022/12/18 11:49:06;;;;;;;15.77;9.37;;;0.20;99.90;;;;;;5079992;28;20027;-73
2022/12/18 11:51:37;;;;;;;14.40;8.43;;;0.20;99.90;;;;;;5083597;28;20496;-72
2022/12/18 11:54:13;;;;;;;20.13;11.30;;;0.30;99.90;;;;;;5084846;28;20044;-72
2022/12/18 11:56:49;;;;;;;18.10;10.73;;;0.30;99.90;;;;;;5078597;28;20044;-72
2022/12/18 11:59:28;;;;;;;15.63;10.20;;;0.30;99.90;;;;;;5082191;28;20040;-72
2022/12/18 12:02:09;;;;;;;17.57;10.60;;;0.40;99.90;;;;;;5066020;28;20358;-72
2022/12/18 12:04:53;;;;;;;15.50;9.10;;;0.40;99.90;;;;;;5077541;28;20036;-73
2022/12/18 12:07:38;;;;;;;14.97;9.80;;;0.40;99.90;;;;;;5060990;28;20417;-73
2022/12/18 12:10:32;;;;;;;15.10;9.10;;;0.50;99.90;;;;;;5084742;28;20028;-73
2022/12/18 12:13:26;;;;;;;14.20;9.17;;;0.50;99.90;;;;;;5083313;28;20414;-72
2022/12/18 12:16:11;;;;;;;13.23;8.07;;;0.50;99.90;;;;;;5054109;28;20436;-73
2022/12/18 12:18:52;;;;;;;14.10;9.30;;;0.60;99.90;;;;;;5063391;28;20024;-72
2022/12/18 12:21:42;;;;;;;13.93;8.57;;;0.60;99.90;;;;;;5087954;28;20044;-73
2022/12/18 12:24:35;;;;;;;15.07;9.83;;;0.60;99.90;;;;;;5084702;28;20036;-73
2022/12/18 12:27:25;;;;;;;14.13;8.77;;;0.60;99.90;;;;;;5064486;28;20043;-72
2022/12/18 12:30:20;;;;;;;14.67;9.07;;;0.60;99.90;;;;;;5068999;28;20178;-73
2022/12/18 12:32:56;;;;;;;15.90;9.40;;;0.60;99.90;;;;;;5068570;28;20044;-74
2022/12/18 12:35:56;;;;;;;15.63;9.50;;;0.70;99.90;;;;;;5065835;28;20463;-73
2022/12/18 12:38:45;;;;;;;15.93;8.83;;;0.70;99.90;;;;;;5049862;28;20032;-73
2022/12/18 12:44:09;;;;;;;16.13;10.35;;;0.70;99.90;;;;;;5063959;28;20483;-74
2022/12/18 12:46:40;;;;;;;14.60;8.53;;;0.70;99.90;;;;;;5083826;28;21329;-73
2022/12/18 12:49:17;;;;;;;14.87;9.27;;;0.70;99.90;;;;;;5084418;28;20047;-74
2022/12/18 12:51:49;;;;;;;15.07;8.83;;;0.70;99.90;;;;;;5087159;28;20047;-73
2022/12/18 12:54:20;;;;;;;14.52;8.43;;;0.70;99.90;;;;;;5070430;28;20035;-73
2022/12/18 12:56:50;;;;;;;14.10;8.20;;;0.70;99.90;;;;;;5079854;28;20032;-74
2022/12/18 12:59:45;;;;;;;14.10;8.73;;;0.70;99.90;;;;;;5071261;28;20032;-73
2022/12/18 13:02:14;;;;;;;13.50;8.27;;;0.70;99.90;;;;;;5075107;28;20487;-74